createdAt,value
2024-05-09T00:01:45.275Z,9.90
2024-05-09T00:03:49.887Z,10.98
2024-05-09T00:05:51.601Z,9.68
2024-05-09T00:07:53.349Z,9.32
2024-05-09T00:09:55.144Z,12.32
2024-05-09T00:11:56.937Z,9.00
2024-05-09T00:13:58.633Z,9.80
2024-05-09T00:16:00.346Z,10.48
2024-05-09T00:18:02.376Z,10.57
2024-05-09T00:20:14.399Z,9.43
2024-05-09T00:22:22.065Z,9.45
2024-05-09T00:24:23.738Z,12.32
2024-05-09T00:26:25.482Z,15.45
2024-05-09T00:28:27.210Z,13.60
2024-05-09T00:30:34.301Z,12.38
2024-05-09T00:32:38.420Z,11.20
2024-05-09T00:34:40.172Z,11.18
2024-05-09T00:36:44.468Z,11.40
2024-05-09T00:38:46.195Z,10.23
2024-05-09T00:40:47.953Z,10.18
2024-05-09T00:42:49.698Z,10.25
2024-05-09T00:44:51.381Z,11.93
2024-05-09T00:46:53.157Z,16.10
2024-05-09T00:48:55.671Z,13.32
2024-05-09T00:50:57.816Z,17.02
2024-05-09T00:53:02.519Z,14.38
2024-05-09T00:55:04.857Z,12.40
2024-05-09T00:57:06.585Z,11.60
2024-05-09T00:59:08.618Z,11.60
2024-05-09T01:01:10.792Z,10.95
2024-05-09T01:03:14.062Z,12.13
2024-05-09T01:05:16.545Z,11.07
2024-05-09T01:07:18.425Z,12.10
2024-05-09T01:09:22.794Z,10.10
2024-05-09T01:11:24.725Z,10.88
2024-05-09T01:13:26.477Z,8.98
2024-05-09T01:15:28.180Z,9.98
2024-05-09T01:17:30.008Z,12.02
2024-05-09T01:19:32.092Z,12.35
2024-05-09T01:21:33.820Z,11.55
2024-05-09T01:23:38.344Z,10.65
2024-05-09T01:25:40.259Z,10.80
2024-05-09T01:27:41.964Z,12.30
2024-05-09T01:29:43.673Z,9.95
2024-05-09T01:31:46.956Z,10.48
2024-05-09T01:33:48.771Z,11.48
2024-05-09T01:35:50.531Z,13.75
2024-05-09T01:37:52.713Z,11.43
2024-05-09T01:39:57.076Z,11.75
2024-05-09T01:41:58.733Z,12.57
2024-05-09T01:44:00.512Z,10.77
2024-05-09T01:46:02.256Z,10.38
2024-05-09T01:48:04.844Z,11.32
2024-05-09T01:50:09.149Z,10.43
2024-05-09T01:52:12.640Z,11.55
2024-05-09T01:54:14.329Z,11.75
2024-05-09T01:56:18.690Z,11.13
2024-05-09T01:58:20.398Z,11.25
2024-05-09T02:00:30.581Z,12.45
2024-05-09T02:02:39.820Z,12.32
2024-05-09T02:04:41.662Z,10.25
2024-05-09T02:06:43.462Z,13.45
2024-05-09T02:08:45.700Z,12.43
2024-05-09T02:10:48.658Z,11.55
2024-05-09T02:12:53.298Z,10.50
2024-05-09T02:14:54.971Z,11.52
2024-05-09T02:16:56.662Z,10.90
2024-05-09T02:18:58.459Z,12.45
2024-05-09T02:21:00.333Z,13.43
2024-05-09T02:23:02.232Z,10.48
2024-05-09T02:25:04.267Z,9.23
2024-05-09T02:27:05.962Z,10.32
2024-05-09T02:29:10.479Z,9.15
2024-05-09T02:31:12.442Z,11.05
2024-05-09T02:33:14.703Z,10.70
2024-05-09T02:35:16.716Z,9.00
2024-05-09T02:37:18.445Z,10.07
2024-05-09T02:39:20.087Z,10.25
2024-05-09T02:41:21.828Z,9.80
2024-05-09T02:43:23.685Z,10.75
2024-05-09T02:45:27.983Z,10.10
2024-05-09T02:47:29.996Z,9.02
2024-05-09T02:49:31.869Z,10.20
2024-05-09T02:51:33.584Z,10.60
2024-05-09T02:53:35.368Z,9.75
2024-05-09T02:55:37.191Z,10.75
2024-05-09T02:57:38.973Z,10.43
2024-05-09T02:59:40.631Z,10.75
2024-05-09T03:01:45.078Z,9.93
2024-05-09T03:03:46.984Z,11.88
2024-05-09T03:05:48.974Z,11.57
2024-05-09T03:07:50.752Z,10.80
2024-05-09T03:09:52.406Z,11.13
2024-05-09T03:11:54.183Z,12.45
2024-05-09T03:13:55.910Z,12.10
2024-05-09T03:15:59.581Z,11.85
2024-05-09T03:18:05.412Z,10.05
2024-05-09T03:20:14.633Z,12.55
2024-05-09T03:22:22.105Z,10.57
2024-05-09T03:24:23.760Z,10.65
2024-05-09T03:26:25.426Z,13.60
2024-05-09T03:28:27.143Z,11.98
2024-05-09T03:30:39.043Z,12.38
2024-05-09T03:32:44.199Z,12.55
2024-05-09T03:34:48.593Z,13.10
2024-05-09T03:36:50.277Z,13.27
2024-05-09T03:38:51.950Z,12.52
2024-05-09T03:40:53.680Z,13.52
2024-05-09T03:42:55.354Z,12.38
2024-05-09T03:44:58.356Z,12.40
2024-05-09T03:47:00.085Z,13.38
2024-05-09T03:49:01.877Z,11.68
2024-05-09T03:51:07.046Z,12.02
2024-05-09T03:53:10.670Z,11.68
2024-05-09T03:55:12.655Z,12.43
2024-05-09T03:57:14.354Z,11.20
2024-05-09T03:59:16.073Z,12.70
2024-05-09T04:01:18.786Z,10.30
2024-05-09T04:03:20.906Z,9.95
2024-05-09T04:05:22.697Z,12.25
2024-05-09T04:07:27.040Z,12.48
2024-05-09T04:09:28.769Z,10.63
2024-05-09T04:11:30.594Z,13.98
2024-05-09T04:13:32.285Z,10.88
2024-05-09T04:15:33.952Z,13.10
2024-05-09T04:17:35.875Z,10.93
2024-05-09T04:19:37.800Z,10.48
2024-05-09T04:21:39.506Z,11.38
2024-05-09T04:23:43.840Z,10.18
2024-05-09T04:25:45.956Z,12.05
2024-05-09T04:27:47.766Z,10.55
2024-05-09T04:29:49.423Z,9.57
2024-05-09T04:31:51.208Z,12.10
2024-05-09T04:33:53.150Z,10.32
2024-05-09T04:35:54.851Z,12.07
2024-05-09T04:37:56.537Z,12.60
2024-05-09T04:40:00.846Z,11.38
2024-05-09T04:42:02.505Z,12.48
2024-05-09T04:44:04.544Z,10.27
2024-05-09T04:46:06.270Z,11.60
2024-05-09T04:48:08.825Z,11.27
2024-05-09T04:50:14.536Z,12.52
2024-05-09T04:52:19.238Z,9.57
2024-05-09T04:54:30.077Z,12.32
2024-05-09T04:56:40.292Z,11.70
2024-05-09T04:58:42.023Z,11.95
2024-05-09T05:00:43.785Z,11.20
2024-05-09T05:02:45.658Z,11.13
2024-05-09T05:04:47.566Z,12.73
2024-05-09T05:06:49.371Z,9.80
2024-05-09T05:08:51.050Z,11.23
2024-05-09T05:10:52.900Z,13.32
2024-05-09T05:12:57.343Z,13.05
2024-05-09T05:14:58.999Z,13.32
2024-05-09T05:17:00.765Z,11.68
2024-05-09T05:19:02.596Z,9.45
2024-05-09T05:21:05.010Z,11.80
2024-05-09T05:23:10.582Z,13.10
2024-05-09T05:25:12.621Z,10.15
2024-05-09T05:27:14.326Z,12.38
2024-05-09T05:29:20.792Z,10.95
2024-05-09T05:31:22.734Z,10.35
2024-05-09T05:33:24.600Z,12.38
2024-05-09T05:35:27.187Z,10.80
2024-05-09T05:37:28.987Z,11.18
2024-05-09T05:39:30.678Z,10.98
2024-05-09T05:41:32.366Z,11.23
2024-05-09T05:43:34.276Z,10.65
2024-05-09T05:45:39.215Z,10.98
2024-05-09T05:47:41.518Z,11.90
2024-05-09T05:49:43.382Z,9.88
2024-05-09T05:51:45.045Z,11.00
2024-05-09T05:53:46.762Z,13.27
2024-05-09T05:55:48.514Z,11.63
2024-05-09T05:57:50.251Z,13.10
2024-05-09T05:59:52.024Z,13.98
2024-05-09T06:01:56.384Z,10.25
2024-05-09T06:03:58.225Z,12.50
2024-05-09T06:06:02.787Z,13.73
2024-05-09T06:08:05.483Z,14.80
2024-05-09T06:10:16.952Z,12.07
2024-05-09T06:12:23.083Z,13.25
2024-05-09T06:14:24.896Z,14.38
2024-05-09T06:16:26.599Z,15.32
2024-05-09T06:18:31.082Z,14.93
2024-05-09T06:20:36.482Z,11.88
2024-05-09T06:22:39.884Z,13.18
2024-05-09T06:24:41.573Z,10.88
2024-05-09T06:26:44.167Z,11.35
2024-05-09T06:28:46.097Z,14.20
2024-05-09T06:30:47.795Z,13.48
2024-05-09T06:32:49.632Z,11.70
2024-05-09T06:34:54.041Z,12.13
2024-05-09T06:36:55.758Z,12.70
2024-05-09T06:38:57.488Z,13.35
2024-05-09T06:40:59.216Z,11.05
2024-05-09T06:43:00.905Z,11.07
2024-05-09T06:45:02.589Z,13.98
2024-05-09T06:47:04.677Z,9.38
2024-05-09T06:49:06.514Z,9.25
2024-05-09T06:51:11.007Z,8.57
2024-05-09T06:53:14.060Z,9.30
2024-05-09T06:55:15.905Z,9.05
2024-05-09T06:57:17.573Z,8.73
2024-05-09T06:59:19.388Z,11.38
2024-05-09T07:01:21.166Z,8.15
2024-05-09T07:03:23.036Z,7.95
2024-05-09T07:05:24.923Z,12.43
2024-05-09T07:07:29.375Z,9.88
2024-05-09T07:09:31.212Z,8.25
2024-05-09T07:11:33.056Z,8.90
2024-05-09T07:13:34.831Z,8.20
2024-05-09T07:15:36.506Z,8.73
2024-05-09T07:17:38.431Z,7.88
2024-05-09T07:19:40.316Z,8.50
2024-05-09T07:21:42.072Z,8.82
2024-05-09T07:23:47.438Z,8.02
2024-05-09T07:25:49.452Z,9.23
2024-05-09T07:27:51.265Z,11.40
2024-05-09T07:29:52.962Z,7.57
2024-05-09T07:31:54.696Z,7.78
2024-05-09T07:33:56.485Z,11.80
2024-05-09T07:35:58.241Z,9.65
2024-05-09T07:37:59.935Z,8.75
2024-05-09T07:40:07.412Z,8.77
2024-05-09T07:42:09.221Z,9.57
2024-05-09T07:44:10.942Z,7.22
2024-05-09T07:47:14.091Z,7.65
2024-05-09T07:50:34.335Z,11.45
2024-05-09T07:52:39.248Z,8.63
2024-05-09T07:53:38.152Z,9.52
2024-05-09T07:55:42.334Z,8.00
2024-05-09T07:57:44.402Z,7.28
2024-05-09T07:59:46.123Z,7.72
2024-05-09T08:01:47.897Z,9.30
2024-05-09T08:03:49.993Z,8.77
2024-05-09T08:05:52.093Z,9.05
2024-05-09T08:07:55.344Z,7.72
2024-05-09T08:09:57.067Z,7.22
2024-05-09T08:12:01.408Z,8.75
2024-05-09T08:14:03.088Z,8.68
2024-05-09T08:16:06.301Z,9.60
2024-05-09T08:18:08.504Z,13.25
2024-05-09T08:20:11.393Z,7.60
2024-05-09T08:22:15.239Z,8.05
2024-05-09T08:24:16.946Z,7.55
2024-05-09T08:26:18.669Z,9.00
2024-05-09T08:28:23.144Z,7.07
2024-05-09T08:30:32.572Z,6.32
2024-05-09T08:32:39.895Z,10.82
2024-05-09T08:34:41.654Z,9.23
2024-05-09T08:36:43.394Z,7.00
2024-05-09T08:38:45.129Z,8.63
2024-05-09T08:40:47.723Z,9.95
2024-05-09T08:42:50.965Z,10.07
2024-05-09T08:44:55.398Z,7.85
2024-05-09T08:46:57.207Z,9.25
2024-05-09T08:49:00.655Z,9.88
2024-05-09T08:51:02.577Z,8.80
2024-05-09T08:53:04.561Z,7.65
2024-05-09T08:55:06.955Z,6.15
2024-05-09T08:57:09.177Z,6.60
2024-05-09T08:59:14.588Z,5.40
2024-05-09T09:01:19.343Z,5.55
2024-05-09T09:03:25.049Z,7.60
2024-05-09T09:05:31.431Z,6.88
2024-05-09T09:07:34.189Z,6.78
2024-05-09T09:09:36.869Z,6.93
2024-05-09T09:11:38.628Z,6.38
2024-05-09T09:13:40.375Z,5.15
2024-05-09T09:15:48.487Z,5.47
2024-05-09T09:18:00.218Z,6.20
2024-05-09T09:20:02.788Z,7.95
2024-05-09T09:22:05.196Z,5.70
2024-05-09T09:24:08.716Z,7.32
2024-05-09T09:26:15.761Z,7.63
2024-05-09T09:28:17.690Z,7.93
2024-05-09T09:30:31.674Z,6.88
2024-05-09T09:32:38.530Z,6.60
2024-05-09T09:34:42.968Z,5.57
2024-05-09T09:36:45.262Z,6.80
2024-05-09T09:38:47.614Z,6.68
2024-05-09T09:40:50.490Z,6.78
2024-05-09T09:42:57.658Z,8.07
2024-05-09T09:45:04.839Z,5.50
2024-05-09T09:47:08.724Z,7.35
2024-05-09T09:49:10.519Z,6.28
2024-05-09T09:51:15.749Z,6.55
2024-05-09T09:53:18.553Z,6.30
2024-05-09T09:55:22.110Z,6.32
2024-05-09T09:57:24.746Z,6.75
2024-05-09T09:59:27.952Z,6.28
2024-05-09T10:01:29.869Z,5.40
2024-05-09T10:03:31.818Z,6.18
2024-05-09T10:05:34.452Z,5.63
2024-05-09T10:07:41.679Z,5.32
2024-05-09T10:09:43.568Z,5.00
2024-05-09T10:11:51.736Z,7.53
2024-05-09T10:13:53.933Z,8.05
2024-05-09T10:15:55.874Z,7.57
2024-05-09T10:18:04.935Z,6.90
2024-05-09T10:20:14.804Z,6.68
2024-05-09T10:22:26.574Z,4.63
2024-05-09T10:24:46.036Z,4.70
2024-05-09T10:26:51.991Z,5.50
2024-05-09T10:28:54.282Z,4.95
2024-05-09T10:31:09.221Z,5.07
2024-05-09T10:33:11.170Z,7.97
2024-05-09T10:35:13.325Z,5.80
2024-05-09T10:37:15.518Z,5.53
2024-05-09T10:39:17.632Z,6.43
2024-05-09T10:41:23.387Z,6.10
2024-05-09T10:43:25.826Z,4.53
2024-05-09T10:45:28.035Z,8.00
2024-05-09T10:47:29.967Z,5.22
2024-05-09T10:49:31.996Z,4.70
2024-05-09T10:51:34.023Z,4.72
2024-05-09T10:53:40.873Z,3.72
2024-05-09T10:55:42.759Z,4.03
2024-05-09T10:57:47.092Z,4.15
2024-05-09T10:59:49.846Z,5.07
2024-05-09T11:01:51.612Z,3.55
2024-05-09T11:03:53.635Z,4.35
2024-05-09T11:05:55.666Z,3.83
2024-05-09T11:07:57.606Z,3.65
2024-05-09T11:09:59.675Z,3.40
2024-05-09T11:12:01.632Z,4.32
2024-05-09T11:14:14.038Z,6.47
2024-05-09T11:16:19.717Z,3.75
2024-05-09T11:18:25.032Z,5.13
2024-05-09T11:20:35.495Z,4.20
2024-05-09T11:22:37.340Z,3.30
2024-05-09T11:24:40.009Z,4.82
2024-05-09T11:26:42.915Z,4.97
2024-05-09T11:28:45.406Z,3.25
2024-05-09T11:30:50.703Z,3.45
2024-05-09T11:32:52.541Z,4.28
2024-05-09T11:34:54.333Z,3.83
2024-05-09T11:36:56.080Z,4.05
2024-05-09T11:38:57.808Z,4.43
2024-05-09T11:40:59.742Z,4.68
2024-05-09T11:43:01.641Z,4.25
2024-05-09T11:45:03.496Z,4.25
2024-05-09T11:47:07.816Z,4.55
2024-05-09T11:49:10.077Z,3.95
2024-05-09T11:51:11.849Z,4.72
2024-05-09T11:53:13.519Z,4.45
2024-05-09T11:55:15.495Z,4.38
2024-05-09T11:57:17.257Z,4.38
2024-05-09T11:59:18.976Z,3.92
2024-05-09T12:01:21.348Z,4.05
2024-05-09T12:03:26.440Z,5.30
2024-05-09T12:05:28.369Z,3.45
2024-05-09T12:07:30.438Z,3.88
2024-05-09T12:09:32.370Z,4.65
2024-05-09T12:11:34.318Z,5.28
2024-05-09T12:13:36.069Z,5.45
2024-05-09T12:15:38.767Z,3.83
2024-05-09T12:17:40.977Z,4.20
2024-05-09T12:19:45.407Z,5.13
2024-05-09T12:21:47.175Z,5.82
2024-05-09T12:23:48.860Z,4.68
2024-05-09T12:25:50.722Z,3.63
2024-05-09T12:27:52.515Z,4.88
2024-05-09T12:29:54.216Z,5.47
2024-05-09T12:31:56.094Z,3.90
2024-05-09T12:33:58.144Z,5.05
2024-05-09T12:36:02.620Z,4.70
2024-05-09T12:38:04.880Z,4.32
2024-05-09T12:40:15.802Z,5.25
2024-05-09T12:42:27.166Z,5.28
2024-05-09T12:44:30.276Z,4.63
2024-05-09T12:46:32.181Z,4.15
2024-05-09T12:48:34.766Z,4.88
2024-05-09T12:50:37.077Z,5.00
2024-05-09T12:52:41.548Z,3.97
2024-05-09T12:54:43.454Z,7.88
2024-05-09T12:56:45.221Z,3.50
2024-05-09T12:58:51.075Z,4.15
2024-05-09T13:00:53.140Z,4.15
2024-05-09T13:02:55.323Z,4.10
2024-05-09T13:04:57.177Z,4.00
2024-05-09T13:06:59.007Z,4.10
2024-05-09T13:09:04.087Z,4.13
2024-05-09T13:11:05.887Z,4.15
2024-05-09T13:13:09.528Z,5.57
2024-05-09T13:15:11.349Z,5.28
2024-05-09T13:17:13.223Z,4.63
2024-05-09T13:19:15.092Z,4.05
2024-05-09T13:21:16.794Z,6.55
2024-05-09T13:23:18.531Z,4.38
2024-05-09T13:25:23.043Z,4.05
2024-05-09T13:27:25.084Z,4.43
2024-05-09T13:29:26.782Z,3.92
2024-05-09T13:31:28.594Z,4.68
2024-05-09T13:33:30.553Z,7.45
2024-05-09T13:35:32.466Z,13.20
2024-05-09T13:37:34.228Z,7.88
2024-05-09T13:39:36.136Z,7.20
2024-05-09T13:41:40.519Z,7.88
2024-05-09T13:43:42.216Z,10.70
2024-05-09T13:45:44.250Z,4.55
2024-05-09T13:47:46.102Z,3.28
2024-05-09T13:49:48.247Z,5.90
2024-05-09T13:51:49.984Z,4.68
2024-05-09T13:53:51.635Z,6.00
2024-05-09T13:55:53.323Z,4.45
2024-05-09T13:57:57.746Z,5.00
2024-05-09T13:59:59.584Z,5.55
2024-05-09T14:02:01.402Z,4.55
2024-05-09T14:04:03.810Z,5.28
2024-05-09T14:06:07.597Z,6.20
2024-05-09T14:08:10.992Z,5.93
2024-05-09T14:10:22.562Z,3.83
2024-05-09T14:12:27.686Z,5.20
2024-05-09T14:14:31.974Z,3.67
2024-05-09T14:16:33.861Z,5.60
2024-05-09T14:18:35.721Z,4.75
2024-05-09T14:20:37.457Z,5.00
2024-05-09T14:22:39.225Z,4.43
2024-05-09T14:24:40.954Z,3.88
2024-05-09T14:26:42.715Z,4.30
2024-05-09T14:28:44.399Z,5.32
2024-05-09T14:30:48.893Z,3.95
2024-05-09T14:32:50.737Z,3.28
2024-05-09T14:34:52.489Z,5.90
2024-05-09T14:36:54.706Z,3.40
2024-05-09T14:38:56.678Z,3.70
2024-05-09T14:40:58.484Z,4.03
2024-05-09T14:43:02.796Z,5.45
2024-05-09T14:45:05.470Z,4.95
2024-05-09T14:47:09.899Z,3.33
2024-05-09T14:49:12.691Z,4.75
2024-05-09T14:51:14.495Z,4.70
2024-05-09T14:53:16.275Z,6.57
2024-05-09T14:55:18.023Z,5.28
2024-05-09T14:57:19.942Z,3.70
2024-05-09T14:59:21.603Z,3.38
2024-05-09T15:01:23.316Z,3.95
2024-05-09T15:03:27.656Z,3.78
2024-05-09T15:05:29.393Z,3.67
2024-05-09T15:07:31.258Z,3.40
2024-05-09T15:09:35.767Z,3.25
2024-05-09T15:11:37.514Z,4.18
2024-05-09T15:13:39.209Z,3.17
2024-05-09T15:15:40.917Z,3.92
2024-05-09T15:17:42.796Z,6.80
2024-05-09T15:19:47.561Z,3.88
2024-05-09T15:21:49.413Z,3.40
2024-05-09T15:23:51.114Z,3.45
2024-05-09T15:25:53.134Z,3.78
2024-05-09T15:27:54.959Z,4.38
2024-05-09T15:29:56.719Z,6.68
2024-05-09T15:31:58.377Z,6.13
2024-05-09T15:34:00.333Z,4.68
2024-05-09T15:36:05.186Z,6.55
2024-05-09T15:38:07.357Z,3.60
2024-05-09T15:40:15.186Z,5.30
2024-05-09T15:42:23.503Z,6.43
2024-05-09T15:44:25.487Z,4.30
2024-05-09T15:46:27.328Z,5.32
2024-05-09T15:48:29.175Z,4.35
2024-05-09T15:50:37.754Z,4.53
2024-05-09T15:52:45.165Z,3.88
2024-05-09T15:54:46.947Z,5.82
2024-05-09T15:56:48.950Z,4.68
2024-05-09T15:58:50.695Z,3.70
2024-05-09T16:00:52.746Z,5.80
2024-05-09T16:02:54.592Z,3.97
2024-05-09T16:04:56.429Z,4.03
2024-05-09T16:06:58.248Z,3.38
2024-05-09T16:09:03.101Z,4.80
2024-05-09T16:11:05.410Z,4.47
2024-05-09T16:13:07.256Z,5.30
2024-05-09T16:15:08.939Z,4.70
2024-05-09T16:17:10.922Z,4.88
2024-05-09T16:19:13.206Z,5.90
2024-05-09T16:21:15.106Z,4.35
2024-05-09T16:23:16.861Z,5.43
2024-05-09T16:25:21.410Z,4.20
2024-05-09T16:27:23.544Z,4.30
2024-05-09T16:29:25.687Z,4.53
2024-05-09T16:31:27.431Z,4.03
2024-05-09T16:33:29.375Z,3.92
2024-05-09T16:35:31.235Z,6.47
2024-05-09T16:37:33.047Z,3.92
2024-05-09T16:39:34.778Z,3.88
2024-05-09T16:41:39.122Z,3.72
2024-05-09T16:43:40.978Z,4.00
2024-05-09T16:45:44.092Z,5.18
2024-05-09T16:47:46.150Z,4.63
2024-05-09T16:49:47.842Z,4.22
2024-05-09T16:51:49.558Z,4.50
2024-05-09T16:53:51.464Z,3.55
2024-05-09T16:55:53.382Z,6.82
2024-05-09T16:57:58.343Z,3.35
2024-05-09T17:00:00.137Z,3.83
2024-05-09T17:02:02.008Z,3.33
2024-05-09T17:04:04.264Z,5.20
2024-05-09T17:06:06.364Z,4.15
2024-05-09T17:08:08.647Z,5.70
2024-05-09T17:10:19.110Z,4.63
2024-05-09T17:12:25.868Z,4.25
2024-05-09T17:14:30.156Z,4.80
2024-05-09T17:16:32.097Z,7.40
2024-05-09T17:18:34.199Z,3.55
2024-05-09T17:20:37.456Z,4.00
2024-05-09T17:22:39.610Z,3.88
2024-05-09T17:24:41.416Z,4.15
2024-05-09T17:26:43.114Z,4.82
2024-05-09T17:28:44.821Z,5.32
2024-05-09T17:30:49.612Z,4.50
2024-05-09T17:32:51.560Z,5.03
2024-05-09T17:34:53.319Z,5.38
2024-05-09T17:36:55.169Z,5.55
2024-05-09T17:38:56.912Z,3.97
2024-05-09T17:40:58.936Z,5.05
2024-05-09T17:43:00.950Z,7.05
2024-05-09T17:45:02.725Z,4.43
2024-05-09T17:47:07.167Z,3.75
2024-05-09T17:49:09.160Z,4.80
2024-05-09T17:51:10.888Z,4.05
2024-05-09T17:53:12.569Z,4.88
2024-05-09T17:55:14.482Z,3.95
2024-05-09T17:57:16.285Z,7.25
2024-05-09T17:59:18.019Z,4.18
2024-05-09T18:01:19.876Z,4.65
2024-05-09T18:03:24.300Z,4.05
2024-05-09T18:05:26.296Z,5.18
2024-05-09T18:07:28.056Z,4.53
2024-05-09T18:09:29.736Z,4.13
2024-05-09T18:11:31.593Z,3.95
2024-05-09T18:13:33.430Z,4.28
2024-05-09T18:15:35.247Z,4.60
2024-05-09T18:17:37.371Z,5.68
2024-05-09T18:19:41.803Z,5.80
2024-05-09T18:21:43.572Z,4.90
2024-05-09T18:23:45.301Z,5.38
2024-05-09T18:25:47.858Z,4.50
2024-05-09T18:27:50.127Z,5.25
2024-05-09T18:29:51.838Z,3.65
2024-05-09T18:31:53.565Z,4.57
2024-05-09T18:33:55.523Z,4.95
2024-05-09T18:35:59.976Z,4.65
2024-05-09T18:38:01.904Z,5.75
2024-05-09T18:40:05.672Z,3.88
2024-05-09T18:42:07.558Z,7.05
2024-05-09T18:44:09.299Z,4.55
2024-05-09T18:46:11.127Z,4.78
2024-05-09T18:48:13.440Z,4.95
2024-05-09T18:50:24.375Z,3.85
2024-05-09T18:52:36.063Z,5.53
2024-05-09T18:54:37.928Z,6.10
2024-05-09T18:56:40.644Z,5.05
2024-05-09T18:58:42.443Z,5.85
2024-05-09T19:00:46.673Z,5.13
2024-05-09T19:02:51.079Z,7.03
2024-05-09T19:04:53.097Z,6.50
2024-05-09T19:06:55.097Z,5.65
2024-05-09T19:09:00.606Z,5.05
2024-05-09T19:11:02.402Z,4.43
2024-05-09T19:13:09.094Z,4.85
2024-05-09T19:15:14.084Z,7.25
2024-05-09T19:17:15.906Z,7.03
2024-05-09T19:19:17.753Z,6.43
2024-05-09T19:21:19.538Z,5.38
2024-05-09T19:23:21.569Z,5.25
2024-05-09T19:25:25.929Z,4.68
2024-05-09T19:27:27.602Z,4.78
2024-05-09T19:29:29.428Z,4.63
2024-05-09T19:31:31.338Z,4.40
2024-05-09T19:33:33.184Z,5.07
2024-05-09T19:35:34.986Z,6.38
2024-05-09T19:37:36.846Z,4.03
2024-05-09T19:39:38.562Z,7.55
2024-05-09T19:41:42.974Z,4.13
2024-05-09T19:43:44.720Z,5.32
2024-05-09T19:45:46.467Z,6.60
2024-05-09T19:47:48.462Z,4.78
2024-05-09T19:49:50.329Z,7.40
2024-05-09T19:51:52.092Z,13.95
2024-05-09T19:53:53.760Z,7.78
2024-05-09T19:55:55.503Z,6.57
2024-05-09T19:58:01.633Z,5.50
2024-05-09T20:00:06.181Z,6.70
2024-05-09T20:02:09.535Z,4.47
2024-05-09T20:04:11.562Z,5.47
2024-05-09T20:06:13.433Z,7.13
2024-05-09T20:08:15.185Z,5.00
2024-05-09T20:10:23.662Z,4.47
2024-05-09T20:12:28.430Z,7.13
2024-05-09T20:14:32.779Z,5.03
2024-05-09T20:16:34.555Z,6.72
2024-05-09T20:18:37.311Z,5.78
2024-05-09T20:20:42.398Z,6.65
2024-05-09T20:22:45.806Z,4.93
2024-05-09T20:24:47.493Z,6.13
2024-05-09T20:26:49.331Z,5.90
2024-05-09T20:28:52.157Z,6.07
2024-05-09T20:30:56.846Z,4.43
2024-05-09T20:32:58.745Z,6.32
2024-05-09T20:35:00.519Z,5.80
2024-05-09T20:37:02.307Z,6.63
2024-05-09T20:39:04.218Z,5.93
2024-05-09T20:41:05.945Z,6.63
2024-05-09T20:43:08.539Z,6.03
2024-05-09T20:45:10.453Z,7.03
2024-05-09T20:47:14.766Z,5.78
2024-05-09T20:49:16.908Z,5.65
2024-05-09T20:51:18.908Z,5.75
2024-05-09T20:53:20.589Z,4.95
2024-05-09T20:55:22.387Z,6.55
2024-05-09T20:57:24.127Z,5.57
2024-05-09T20:59:25.853Z,6.65
2024-05-09T21:01:27.616Z,5.97
2024-05-09T21:03:32.137Z,6.30
2024-05-09T21:05:34.654Z,6.07
2024-05-09T21:07:36.968Z,5.78
2024-05-09T21:09:38.860Z,6.15
2024-05-09T21:11:40.846Z,5.25
2024-05-09T21:13:42.649Z,6.55
2024-05-09T21:15:44.379Z,5.32
2024-05-09T21:17:46.264Z,6.22
2024-05-09T21:19:50.915Z,5.85
2024-05-09T21:21:53.454Z,5.03
2024-05-09T21:23:55.348Z,4.60
2024-05-09T21:25:57.183Z,5.53
2024-05-09T21:27:59.410Z,5.00
2024-05-09T21:30:07.618Z,6.97
2024-05-09T21:32:11.541Z,6.22
2024-05-09T21:34:13.424Z,7.57
2024-05-09T21:36:17.917Z,5.30
2024-05-09T21:38:19.849Z,5.25
2024-05-09T21:40:31.153Z,4.65
2024-05-09T21:42:36.271Z,5.25
2024-05-09T21:44:37.952Z,5.30
2024-05-09T21:46:39.775Z,5.90
2024-05-09T21:48:41.726Z,5.82
2024-05-09T21:50:43.561Z,7.82
2024-05-09T21:52:47.896Z,10.55
2024-05-09T21:54:49.628Z,8.80
2024-05-09T21:56:53.125Z,7.65
2024-05-09T21:58:54.903Z,5.88
2024-05-09T22:00:56.683Z,5.78
2024-05-09T22:02:58.446Z,5.72
2024-05-09T22:05:00.585Z,9.32
2024-05-09T22:07:02.560Z,14.15
2024-05-09T22:09:06.918Z,9.93
2024-05-09T22:11:08.773Z,9.25
2024-05-09T22:13:10.557Z,8.57
2024-05-09T22:15:12.327Z,6.22
2024-05-09T22:17:14.106Z,6.78
2024-05-09T22:19:16.752Z,6.25
2024-05-09T22:21:19.049Z,6.03
2024-05-09T22:23:21.002Z,5.55
2024-05-09T22:25:27.270Z,6.63
2024-05-09T22:27:30.539Z,5.90
2024-05-09T22:29:32.275Z,6.05
2024-05-09T22:31:33.967Z,5.35
2024-05-09T22:33:35.764Z,5.35
2024-05-09T22:35:37.885Z,6.55
2024-05-09T22:37:39.533Z,5.82
2024-05-09T22:39:41.221Z,9.05
2024-05-09T22:41:45.563Z,6.60
2024-05-09T22:43:47.267Z,6.88
2024-05-09T22:45:48.979Z,8.43
2024-05-09T22:47:50.942Z,6.18
2024-05-09T22:49:52.814Z,7.93
2024-05-09T22:51:54.578Z,7.25
2024-05-09T22:53:56.317Z,6.30
2024-05-09T22:55:58.091Z,6.75
2024-05-09T22:58:02.507Z,6.32
2024-05-09T23:00:06.316Z,5.13
2024-05-09T23:02:08.190Z,6.90
2024-05-09T23:04:10.169Z,4.95
2024-05-09T23:06:12.037Z,7.03
2024-05-09T23:08:13.794Z,6.78
2024-05-09T23:10:21.407Z,7.78
2024-05-09T23:12:29.629Z,6.55
2024-05-09T23:14:33.944Z,5.38
2024-05-09T23:16:35.680Z,6.47
2024-05-09T23:18:37.503Z,5.38
2024-05-09T23:20:40.269Z,5.90
2024-05-09T23:22:42.243Z,6.40
2024-05-09T23:24:43.952Z,5.03
2024-05-09T23:26:45.684Z,5.30
2024-05-09T23:28:48.051Z,5.40
2024-05-09T23:30:52.467Z,4.72
2024-05-09T23:32:54.248Z,6.47
2024-05-09T23:34:56.272Z,6.70
2024-05-09T23:36:58.108Z,5.80
2024-05-09T23:39:00.087Z,6.97
2024-05-09T23:41:01.907Z,6.78
2024-05-09T23:43:03.863Z,6.72
2024-05-09T23:45:06.809Z,6.47
2024-05-09T23:47:11.221Z,5.18
2024-05-09T23:49:12.998Z,6.85
2024-05-09T23:51:14.954Z,7.70
2024-05-09T23:53:16.666Z,6.38
2024-05-09T23:55:18.555Z,6.03
2024-05-09T23:57:20.421Z,5.95
2024-05-09T23:59:22.092Z,5.03
